Time;durP1;ratioP1;P1;durP2;ratioP2;P2;SDS_P1;SDS_P2;PMS_P1;PMS_P2;Temp;Humidity;BMP_temperature;BMP_pressure;BME280_temperature;BME280_humidity;BME280_pressure;Samples;Min_cycle;Max_cycle;Signal;HPM_P1;HPM_P2
2023/03/04 00:00:41;;;;;;;34.30;25.55;;;4.60;99.90;;;;;;4882378;29;20217;-76
2023/03/04 00:03:10;;;;;;;30.58;24.02;;;4.70;99.90;;;;;;4874716;29;20297;-80
2023/03/04 00:05:40;;;;;;;37.85;25.92;;;4.60;99.90;;;;;;4891115;29;20683;-77
2023/03/04 00:08:09;;;;;;;40.35;29.13;;;4.60;99.90;;;;;;4885276;29;20227;-77
2023/03/04 00:10:37;;;;;;;36.47;25.40;;;4.50;99.90;;;;;;4889891;29;20250;-76
2023/03/04 00:13:05;;;;;;;39.33;25.55;;;4.60;99.90;;;;;;4880954;29;20205;-76
2023/03/04 00:15:33;;;;;;;34.17;25.55;;;4.50;99.90;;;;;;4885380;29;20203;-78
2023/03/04 00:18:01;;;;;;;35.67;25.35;;;4.40;99.90;;;;;;4887191;29;20237;-77
2023/03/04 00:20:30;;;;;;;33.78;25.02;;;4.40;99.90;;;;;;4880990;29;20205;-78
2023/03/04 00:22:59;;;;;;;32.78;24.05;;;4.40;99.90;;;;;;4885002;29;20213;-77
2023/03/04 00:25:27;;;;;;;34.90;26.33;;;4.40;99.90;;;;;;4892590;29;20196;-77
2023/03/04 00:27:57;;;;;;;32.25;25.25;;;4.40;99.90;;;;;;4887951;29;20224;-75
2023/03/04 00:30:25;;;;;;;38.00;25.77;;;4.40;99.90;;;;;;4873042;29;20222;-77
2023/03/04 00:32:53;;;;;;;35.97;24.30;;;4.40;99.90;;;;;;4891688;29;20195;-76
2023/03/04 00:35:21;;;;;;;37.95;24.42;;;4.30;99.90;;;;;;4889050;29;20663;-77
2023/03/04 00:37:49;;;;;;;37.88;25.00;;;4.30;99.90;;;;;;4890720;29;20230;-76
2023/03/04 00:40:19;;;;;;;36.17;26.05;;;4.30;99.90;;;;;;4886200;29;20203;-74
2023/03/04 00:42:47;;;;;;;36.03;26.20;;;4.30;99.90;;;;;;4889301;29;20302;-76
2023/03/04 00:45:15;;;;;;;33.83;25.30;;;4.20;99.90;;;;;;4870900;29;20680;-75
2023/03/04 00:47:44;;;;;;;34.50;25.60;;;4.20;99.90;;;;;;4889003;29;20314;-78
2023/03/04 00:50:12;;;;;;;33.03;24.45;;;4.30;99.90;;;;;;4885278;29;20210;-75
2023/03/04 00:52:40;;;;;;;40.22;26.88;;;4.20;99.90;;;;;;4891080;29;20207;-76
2023/03/04 00:55:09;;;;;;;37.78;25.85;;;4.20;99.90;;;;;;4872013;29;20206;-76
2023/03/04 00:57:39;;;;;;;38.75;25.75;;;4.20;99.90;;;;;;4887964;29;20230;-78
2023/03/04 01:00:10;;;;;;;34.05;23.88;;;4.10;99.90;;;;;;4873232;29;20205;-79
2023/03/04 01:02:39;;;;;;;39.63;26.67;;;4.10;99.90;;;;;;4893079;29;20208;-77
2023/03/04 01:05:08;;;;;;;33.13;25.10;;;4.20;99.90;;;;;;4884789;29;20193;-77
2023/03/04 01:07:36;;;;;;;38.38;26.52;;;4.20;99.90;;;;;;4887673;29;21213;-77
2023/03/04 01:10:06;;;;;;;33.10;25.45;;;4.10;99.90;;;;;;4888191;29;20616;-73
2023/03/04 01:12:34;;;;;;;40.38;24.95;;;4.10;99.90;;;;;;4885059;29;20202;-77
2023/03/04 01:15:04;;;;;;;37.20;27.27;;;4.00;99.90;;;;;;4890431;29;20195;-78
2023/03/04 01:17:32;;;;;;;38.17;25.30;;;4.00;99.90;;;;;;4882318;29;20584;-78
2023/03/04 01:20:01;;;;;;;37.85;25.75;;;4.00;99.90;;;;;;4883031;29;20197;-77
2023/03/04 01:22:29;;;;;;;34.78;24.83;;;4.10;99.90;;;;;;4890389;29;20199;-74
2023/03/04 01:24:57;;;;;;;37.65;24.67;;;4.00;99.90;;;;;;4891849;29;20619;-76
2023/03/04 01:27:25;;;;;;;34.95;25.80;;;3.90;99.90;;;;;;4887338;29;20222;-75
2023/03/04 01:29:53;;;;;;;36.00;24.40;;;3.90;99.90;;;;;;4886658;29;20667;-76
2023/03/04 01:32:23;;;;;;;34.55;25.20;;;3.80;99.90;;;;;;4881520;29;20229;-76
2023/03/04 01:34:51;;;;;;;33.83;25.13;;;3.90;99.90;;;;;;4890249;29;20677;-76
2023/03/04 01:37:19;;;;;;;38.08;24.45;;;4.00;99.90;;;;;;4887951;29;20226;-77
2023/03/04 01:39:47;;;;;;;33.50;25.75;;;3.90;99.90;;;;;;4884922;29;20301;-79
2023/03/04 01:42:19;;;;;;;36.97;24.38;;;3.90;99.90;;;;;;4889383;29;20186;-78
2023/03/04 01:44:49;;;;;;;32.65;23.85;;;3.90;99.90;;;;;;4887264;29;20227;-77
2023/03/04 01:47:18;;;;;;;38.85;25.02;;;3.80;99.90;;;;;;4887983;29;20310;-77
2023/03/04 01:49:52;;;;;;;33.97;24.42;;;3.80;99.90;;;;;;4881239;29;20291;-77
2023/03/04 01:52:21;;;;;;;32.63;23.80;;;3.70;99.90;;;;;;4889120;29;20229;-72
2023/03/04 01:54:49;;;;;;;37.15;24.45;;;3.70;99.90;;;;;;4879852;29;20227;-76
2023/03/04 01:57:19;;;;;;;32.10;23.95;;;3.60;99.90;;;;;;4893692;29;20305;-77
2023/03/04 02:00:08;;;;;;;32.35;23.80;;;3.60;99.90;;;;;;4875952;29;20261;-77
2023/03/04 02:02:36;;;;;;;31.40;24.05;;;3.80;99.90;;;;;;4892006;29;20201;-77
2023/03/04 02:05:06;;;;;;;34.72;23.75;;;3.80;99.90;;;;;;4884530;29;20229;-77
2023/03/04 02:07:34;;;;;;;36.28;24.67;;;3.90;99.90;;;;;;4885739;29;20226;-78
2023/03/04 02:10:03;;;;;;;32.25;21.67;;;3.80;99.90;;;;;;4890193;29;20202;-75
2023/03/04 02:12:31;;;;;;;35.65;24.10;;;3.70;99.90;;;;;;4889212;29;20231;-77
2023/03/04 02:14:59;;;;;;;38.28;24.45;;;3.70;99.90;;;;;;4887594;29;20212;-76
2023/03/04 02:17:28;;;;;;;28.20;21.20;;;3.70;99.90;;;;;;4891546;29;20233;-75
2023/03/04 02:20:03;;;;;;;28.40;20.90;;;3.60;99.90;;;;;;4891260;29;20209;-79
2023/03/04 02:22:36;;;;;;;30.10;22.63;;;3.70;99.90;;;;;;4896167;29;20189;-78
2023/03/04 02:25:10;;;;;;;29.08;21.85;;;3.50;99.90;;;;;;4892238;29;20235;-80
2023/03/04 02:27:40;;;;;;;30.50;20.73;;;3.40;99.90;;;;;;4889946;29;20731;-79
2023/03/04 02:30:11;;;;;;;27.67;21.50;;;3.40;99.90;;;;;;4894204;29;20678;-72
2023/03/04 02:32:39;;;;;;;28.33;20.83;;;3.30;99.90;;;;;;4889426;29;20712;-74
2023/03/04 02:35:16;;;;;;;27.90;22.08;;;3.50;99.90;;;;;;4893057;29;20467;-74
2023/03/04 02:37:44;;;;;;;29.17;21.58;;;3.50;99.90;;;;;;4896243;29;20254;-75
2023/03/04 02:40:16;;;;;;;27.75;19.83;;;3.40;99.90;;;;;;4868071;29;20213;-75
2023/03/04 02:42:46;;;;;;;29.50;19.25;;;3.50;99.90;;;;;;4885587;29;20205;-75
2023/03/04 02:45:38;;;;;;;27.08;20.50;;;3.50;99.90;;;;;;4896874;29;20216;-75
2023/03/04 02:48:07;;;;;;;28.67;20.65;;;3.40;99.90;;;;;;4875865;29;20220;-81
2023/03/04 02:50:42;;;;;;;31.05;21.02;;;3.40;99.90;;;;;;4888518;29;20212;-76
2023/03/04 02:53:11;;;;;;;32.53;20.77;;;3.40;99.90;;;;;;4889278;29;20248;-76
2023/03/04 02:55:40;;;;;;;30.85;22.55;;;3.30;99.90;;;;;;4887222;29;20201;-75
2023/03/04 02:58:09;;;;;;;30.83;20.75;;;3.30;99.90;;;;;;4891782;29;20315;-75
2023/03/04 03:00:38;;;;;;;29.15;20.90;;;3.20;99.90;;;;;;4893570;29;20210;-78
2023/03/04 03:03:06;;;;;;;27.45;20.88;;;3.30;99.90;;;;;;4886687;29;20208;-76
2023/03/04 03:05:36;;;;;;;29.30;20.90;;;3.30;99.90;;;;;;4886861;29;20208;-79
2023/03/04 03:08:05;;;;;;;27.73;19.80;;;3.30;99.90;;;;;;4889162;29;20330;-78
2023/03/04 03:10:33;;;;;;;29.52;20.92;;;3.20;99.90;;;;;;4884475;29;20209;-79
2023/03/04 03:13:01;;;;;;;29.35;20.08;;;3.10;99.90;;;;;;4889936;29;20224;-74
2023/03/04 03:15:31;;;;;;;28.33;20.20;;;3.10;99.90;;;;;;4873444;29;20221;-75
2023/03/04 03:17:59;;;;;;;29.73;20.83;;;3.00;99.90;;;;;;4885745;29;20220;-76
2023/03/04 03:20:27;;;;;;;28.98;20.17;;;3.00;99.90;;;;;;4884105;29;20711;-76
2023/03/04 03:22:55;;;;;;;25.35;19.35;;;3.00;99.90;;;;;;4872403;29;20223;-76
2023/03/04 03:25:23;;;;;;;27.73;17.60;;;3.20;99.90;;;;;;4888572;29;20206;-76
2023/03/04 03:27:51;;;;;;;23.55;18.23;;;3.20;99.90;;;;;;4889122;29;20227;-79
2023/03/04 03:30:20;;;;;;;25.08;18.65;;;3.20;99.90;;;;;;4888650;29;20301;-76
2023/03/04 03:32:49;;;;;;;26.15;19.23;;;3.20;99.90;;;;;;4887657;29;20326;-72
2023/03/04 03:35:18;;;;;;;26.55;19.10;;;3.20;99.90;;;;;;4885134;29;20207;-75
2023/03/04 03:37:47;;;;;;;27.40;18.65;;;3.20;99.90;;;;;;4889046;29;20781;-76
2023/03/04 03:40:16;;;;;;;24.35;17.63;;;3.00;99.90;;;;;;4887538;29;20205;-79
2023/03/04 03:42:44;;;;;;;28.27;19.35;;;2.90;99.90;;;;;;4891128;29;20204;-76
2023/03/04 03:45:12;;;;;;;26.80;19.50;;;2.90;99.90;;;;;;4890033;29;20224;-75
2023/03/04 03:47:40;;;;;;;25.95;18.00;;;2.90;99.90;;;;;;4885921;29;20241;-75
2023/03/04 03:50:11;;;;;;;26.23;18.77;;;3.00;99.90;;;;;;4883555;29;20209;-76
2023/03/04 03:52:39;;;;;;;23.38;16.45;;;3.00;99.90;;;;;;4893433;29;20229;-73
2023/03/04 03:55:08;;;;;;;27.50;19.50;;;3.00;99.90;;;;;;4889377;29;20191;-74
2023/03/04 03:57:36;;;;;;;25.88;18.67;;;2.90;99.90;;;;;;4885795;29;20281;-75
2023/03/04 04:00:04;;;;;;;22.73;16.95;;;2.90;99.90;;;;;;4892362;29;22255;-77
2023/03/04 04:02:33;;;;;;;23.17;18.67;;;2.80;99.90;;;;;;4888315;29;20216;-73
2023/03/04 04:05:01;;;;;;;25.70;17.92;;;2.80;99.90;;;;;;4889730;29;20207;-72
2023/03/04 04:07:32;;;;;;;28.83;19.80;;;2.80;99.90;;;;;;4890743;29;20223;-74
2023/03/04 04:10:00;;;;;;;23.92;17.35;;;2.90;99.90;;;;;;4890041;29;20216;-74
2023/03/04 04:12:28;;;;;;;25.85;19.45;;;3.00;99.90;;;;;;4887206;29;20966;-71
2023/03/04 04:14:56;;;;;;;22.27;16.17;;;2.90;99.90;;;;;;4883933;29;20664;-74
2023/03/04 04:17:25;;;;;;;25.48;17.58;;;2.80;99.90;;;;;;4888438;29;20229;-72
2023/03/04 04:19:53;;;;;;;25.67;17.90;;;2.90;99.90;;;;;;4885036;29;20287;-74
2023/03/04 04:22:21;;;;;;;24.08;17.95;;;2.90;99.90;;;;;;4885386;29;20282;-74
2023/03/04 04:24:51;;;;;;;22.92;17.52;;;2.90;99.90;;;;;;4887837;29;20220;-74
2023/03/04 04:27:19;;;;;;;25.50;17.63;;;3.00;99.90;;;;;;4885441;29;20228;-74
2023/03/04 04:29:47;;;;;;;25.52;17.58;;;3.00;99.90;;;;;;4890492;29;20206;-73
2023/03/04 04:32:15;;;;;;;22.75;16.48;;;3.00;99.90;;;;;;4886372;29;20287;-74
2023/03/04 04:34:44;;;;;;;22.95;17.10;;;2.90;99.90;;;;;;4888977;29;20211;-77
2023/03/04 04:37:12;;;;;;;24.23;15.85;;;2.90;99.90;;;;;;4888075;29;20284;-75
2023/03/04 04:39:40;;;;;;;28.42;18.42;;;2.90;99.90;;;;;;4888671;29;20211;-75
2023/03/04 04:42:10;;;;;;;24.30;16.77;;;2.80;99.90;;;;;;4877498;29;20272;-76
2023/03/04 04:44:38;;;;;;;24.48;17.23;;;2.70;99.90;;;;;;4871096;29;20251;-73
2023/03/04 04:47:07;;;;;;;24.20;16.63;;;2.70;99.90;;;;;;4892903;29;20232;-75
2023/03/04 04:49:35;;;;;;;24.48;18.35;;;2.70;99.90;;;;;;4887935;29;20284;-74
2023/03/04 04:52:03;;;;;;;24.23;16.42;;;2.80;99.90;;;;;;4884869;29;20204;-75
2023/03/04 04:54:32;;;;;;;24.15;18.63;;;2.80;99.90;;;;;;4885059;29;20696;-74
2023/03/04 04:57:00;;;;;;;40.70;24.00;;;2.60;99.90;;;;;;4886163;29;20229;-74
2023/03/04 04:59:29;;;;;;;38.10;22.33;;;2.70;99.90;;;;;;4891073;29;20191;-74
2023/03/04 05:01:57;;;;;;;24.05;17.58;;;2.80;99.90;;;;;;4888522;29;20230;-75
2023/03/04 05:04:26;;;;;;;23.95;17.83;;;2.70;99.90;;;;;;4891358;29;20207;-76
2023/03/04 05:06:54;;;;;;;20.25;16.08;;;2.70;99.90;;;;;;4891045;29;20233;-75
2023/03/04 05:09:22;;;;;;;24.35;17.23;;;2.70;99.90;;;;;;4883720;29;20213;-76
2023/03/04 05:11:50;;;;;;;25.77;18.73;;;2.70;99.90;;;;;;4883901;29;20205;-75
2023/03/04 05:14:18;;;;;;;24.40;18.63;;;2.70;99.90;;;;;;4887598;29;20217;-75
2023/03/04 05:16:48;;;;;;;28.45;19.58;;;2.60;99.90;;;;;;4885928;29;20198;-74
2023/03/04 05:19:16;;;;;;;27.30;18.55;;;2.60;99.90;;;;;;4865108;29;20252;-77
2023/03/04 05:21:44;;;;;;;26.65;17.83;;;2.60;99.90;;;;;;4887964;29;20260;-78
2023/03/04 05:24:12;;;;;;;27.65;19.95;;;2.50;99.90;;;;;;4883309;29;20295;-74
2023/03/04 05:26:40;;;;;;;24.67;18.38;;;2.50;99.90;;;;;;4890717;29;20213;-76
2023/03/04 05:29:09;;;;;;;26.80;19.27;;;2.50;99.90;;;;;;4886060;29;20291;-76
2023/03/04 05:31:37;;;;;;;21.85;16.90;;;2.40;99.90;;;;;;4883161;29;20205;-74
2023/03/04 05:34:06;;;;;;;27.52;17.55;;;2.50;99.90;;;;;;4885592;29;20220;-77
2023/03/04 05:36:34;;;;;;;28.20;18.85;;;2.50;99.90;;;;;;4884633;29;20230;-76
2023/03/04 05:39:03;;;;;;;24.55;18.48;;;2.50;99.90;;;;;;4889843;29;20274;-77
2023/03/04 05:41:31;;;;;;;22.75;17.05;;;2.50;99.90;;;;;;4884549;29;20640;-76
2023/03/04 05:43:59;;;;;;;25.80;18.33;;;2.50;99.90;;;;;;4890773;29;20208;-76
2023/03/04 05:46:27;;;;;;;25.85;17.65;;;2.40;99.90;;;;;;4886904;29;20207;-75
2023/03/04 05:48:55;;;;;;;25.48;19.42;;;2.50;99.90;;;;;;4886578;29;20227;-74
2023/03/04 05:51:25;;;;;;;28.80;20.42;;;2.40;99.90;;;;;;4889594;29;20280;-74
2023/03/04 05:53:53;;;;;;;28.73;18.88;;;2.40;99.90;;;;;;4886154;29;20720;-77
2023/03/04 05:56:21;;;;;;;25.95;20.42;;;2.30;99.90;;;;;;4870148;29;20202;-80
2023/03/04 05:58:49;;;;;;;27.02;19.05;;;2.30;99.90;;;;;;4887242;29;20231;-73
2023/03/04 06:01:18;;;;;;;27.42;19.70;;;2.20;99.90;;;;;;4892284;29;20643;-75
2023/03/04 06:03:47;;;;;;;26.95;19.23;;;2.20;99.90;;;;;;4890275;29;20203;-75
2023/03/04 06:06:15;;;;;;;27.20;19.20;;;2.20;99.90;;;;;;4887199;29;20713;-75
2023/03/04 06:08:45;;;;;;;23.48;17.80;;;2.20;99.90;;;;;;4886184;29;20231;-76
2023/03/04 06:11:13;;;;;;;27.92;18.92;;;2.00;99.90;;;;;;4891308;29;20212;-75
2023/03/04 06:13:41;;;;;;;28.70;18.92;;;2.10;99.90;;;;;;4888533;29;20252;-74
2023/03/04 06:16:09;;;;;;;25.20;16.73;;;2.10;99.90;;;;;;4890292;29;20216;-75
2023/03/04 06:18:38;;;;;;;26.45;18.42;;;2.10;99.90;;;;;;4886009;29;20255;-78
2023/03/04 06:21:06;;;;;;;26.75;18.20;;;2.10;99.90;;;;;;4890416;29;20199;-75
2023/03/04 06:23:34;;;;;;;25.83;19.27;;;2.20;99.90;;;;;;4889000;29;20226;-77
2023/03/04 06:26:08;;;;;;;24.45;18.13;;;2.20;99.90;;;;;;4891078;29;20250;-74
2023/03/04 06:28:36;;;;;;;21.83;18.08;;;2.20;99.90;;;;;;4882175;29;20239;-75
2023/03/04 06:31:04;;;;;;;26.80;18.08;;;2.20;99.90;;;;;;4884954;29;20243;-75
2023/03/04 06:33:33;;;;;;;25.50;19.33;;;2.20;99.90;;;;;;4884344;29;20227;-78
2023/03/04 06:36:01;;;;;;;24.98;18.30;;;2.20;99.90;;;;;;4888453;29;20260;-75
2023/03/04 06:38:29;;;;;;;23.27;18.52;;;2.30;99.90;;;;;;4887968;29;20269;-74
2023/03/04 06:40:57;;;;;;;25.13;18.10;;;2.30;99.90;;;;;;4892302;29;20261;-75
2023/03/04 06:43:26;;;;;;;26.58;18.60;;;2.40;99.90;;;;;;4889757;29;20202;-74
2023/03/04 06:45:54;;;;;;;27.13;19.13;;;2.40;99.90;;;;;;4870787;29;20603;-76
2023/03/04 06:48:22;;;;;;;22.98;16.92;;;2.40;99.90;;;;;;4891460;29;20284;-75
2023/03/04 06:50:51;;;;;;;24.55;17.83;;;2.50;99.90;;;;;;4870507;29;20200;-75
2023/03/04 06:53:19;;;;;;;24.40;18.33;;;2.50;99.90;;;;;;4894518;29;20284;-74
2023/03/04 06:55:48;;;;;;;27.02;18.88;;;2.50;99.90;;;;;;4892721;29;20208;-75
2023/03/04 06:58:17;;;;;;;24.40;18.67;;;2.50;99.90;;;;;;4886921;29;20260;-75
2023/03/04 07:00:46;;;;;;;28.88;19.83;;;2.60;99.90;;;;;;4892649;29;20205;-77
2023/03/04 07:03:14;;;;;;;24.98;19.25;;;2.60;99.90;;;;;;4886939;29;20209;-75
2023/03/04 07:05:43;;;;;;;29.77;22.73;;;2.60;99.90;;;;;;4886555;29;20465;-74
2023/03/04 07:08:11;;;;;;;30.67;19.52;;;2.40;99.90;;;;;;4886682;29;20221;-76
2023/03/04 07:10:39;;;;;;;25.20;17.60;;;2.60;99.90;;;;;;4890321;29;20212;-76
2023/03/04 07:13:07;;;;;;;23.08;17.70;;;2.80;99.90;;;;;;4888148;29;20207;-79
2023/03/04 07:15:36;;;;;;;26.65;17.73;;;2.90;99.90;;;;;;4873407;29;20223;-79
2023/03/04 07:18:05;;;;;;;29.20;18.83;;;2.90;99.90;;;;;;4867004;29;20310;-79
2023/03/04 07:20:33;;;;;;;28.30;17.80;;;3.00;99.90;;;;;;4875142;29;20210;-75
2023/03/04 07:23:02;;;;;;;30.25;18.65;;;3.00;99.90;;;;;;4886150;29;20642;-75
2023/03/04 07:25:30;;;;;;;21.10;16.77;;;3.10;99.90;;;;;;4883305;29;20205;-76
2023/03/04 07:27:58;;;;;;;22.15;17.30;;;3.10;99.90;;;;;;4890804;29;20256;-78
2023/03/04 07:30:26;;;;;;;29.35;18.30;;;3.10;99.90;;;;;;4888319;29;20204;-74
2023/03/04 07:32:57;;;;;;;28.55;18.85;;;3.20;99.90;;;;;;4889498;29;20457;-75
2023/03/04 07:35:26;;;;;;;27.02;17.58;;;3.20;99.90;;;;;;4886603;29;20220;-77
2023/03/04 07:37:55;;;;;;;24.25;16.45;;;3.30;99.90;;;;;;4875277;29;20232;-76
2023/03/04 07:40:23;;;;;;;24.95;17.70;;;3.20;99.90;;;;;;4892275;29;20193;-75
2023/03/04 07:42:51;;;;;;;23.67;16.35;;;3.30;99.90;;;;;;4889901;29;20237;-76
2023/03/04 07:45:20;;;;;;;19.98;16.25;;;3.30;99.90;;;;;;4885037;29;20212;-72
2023/03/04 07:47:48;;;;;;;23.95;17.20;;;3.40;99.90;;;;;;4883054;29;20229;-76
2023/03/04 07:50:17;;;;;;;22.70;16.40;;;3.40;99.90;;;;;;4891407;29;20211;-78
2023/03/04 07:52:49;;;;;;;25.95;16.83;;;3.40;99.90;;;;;;4885827;29;20208;-75
2023/03/04 07:55:18;;;;;;;26.67;17.67;;;3.40;99.90;;;;;;4890341;29;20272;-76
2023/03/04 07:57:48;;;;;;;30.45;18.23;;;3.40;99.90;;;;;;4889717;29;20235;-77
2023/03/04 08:00:17;;;;;;;24.95;17.67;;;3.50;99.90;;;;;;4884058;29;20205;-75
2023/03/04 08:02:45;;;;;;;21.08;16.50;;;3.50;99.90;;;;;;4885157;29;20201;-78
2023/03/04 08:05:14;;;;;;;24.15;17.70;;;3.60;99.90;;;;;;4887383;29;20264;-75
2023/03/04 08:07:42;;;;;;;22.70;16.60;;;3.60;99.90;;;;;;4892638;29;20310;-74
2023/03/04 08:10:12;;;;;;;19.98;15.75;;;3.70;99.90;;;;;;4889663;29;20671;-74
2023/03/04 08:12:40;;;;;;;24.73;16.02;;;3.70;99.90;;;;;;4888981;29;20258;-77
2023/03/04 08:15:09;;;;;;;24.30;15.90;;;3.50;99.90;;;;;;4888122;29;20229;-77
2023/03/04 08:17:38;;;;;;;24.55;16.40;;;3.60;99.90;;;;;;4886302;29;20229;-78
2023/03/04 08:20:07;;;;;;;24.42;16.60;;;3.60;99.90;;;;;;4885926;29;20694;-76
2023/03/04 08:22:35;;;;;;;22.58;16.75;;;3.60;99.90;;;;;;4886414;29;20217;-75
2023/03/04 08:25:04;;;;;;;23.70;16.48;;;3.60;99.90;;;;;;4884630;29;20202;-75
2023/03/04 08:27:33;;;;;;;22.35;15.27;;;3.70;99.90;;;;;;4885671;29;20221;-75
2023/03/04 08:30:01;;;;;;;20.33;15.10;;;3.70;99.90;;;;;;4881378;29;20196;-74
2023/03/04 08:32:30;;;;;;;21.65;16.80;;;3.70;99.90;;;;;;4888012;29;20206;-74
2023/03/04 08:35:01;;;;;;;21.20;14.77;;;3.80;99.90;;;;;;4888925;29;20251;-75
2023/03/04 08:37:30;;;;;;;22.45;15.05;;;3.90;99.90;;;;;;4892024;29;20224;-75
2023/03/04 08:39:58;;;;;;;22.13;15.98;;;3.80;99.90;;;;;;4890334;29;20208;-73
2023/03/04 08:42:26;;;;;;;19.77;14.20;;;3.90;99.90;;;;;;4886465;29;20695;-78
2023/03/04 08:44:55;;;;;;;20.20;14.43;;;3.90;99.90;;;;;;4889464;29;20187;-72
2023/03/04 08:47:23;;;;;;;22.13;16.67;;;3.90;99.90;;;;;;4872833;29;20221;-75
2023/03/04 08:49:52;;;;;;;25.10;18.92;;;3.80;99.90;;;;;;4894436;29;20211;-74
2023/03/04 08:52:20;;;;;;;22.60;17.98;;;3.90;99.90;;;;;;4891553;29;20207;-75
2023/03/04 08:54:48;;;;;;;24.40;16.73;;;3.90;99.90;;;;;;4886095;29;20229;-72
2023/03/04 08:57:16;;;;;;;21.98;16.73;;;3.90;99.90;;;;;;4890947;29;20285;-76
2023/03/04 08:59:44;;;;;;;21.63;17.15;;;3.90;99.90;;;;;;4881110;29;20833;-75
2023/03/04 09:02:15;;;;;;;29.08;17.90;;;4.00;99.90;;;;;;4882908;29;20227;-75
2023/03/04 09:04:44;;;;;;;24.05;16.60;;;4.00;99.90;;;;;;4887464;29;20226;-77
2023/03/04 09:07:13;;;;;;;30.73;21.83;;;4.00;99.90;;;;;;4885455;29;20460;-75
2023/03/04 09:09:41;;;;;;;20.85;15.57;;;3.80;99.90;;;;;;4888705;29;20265;-75
2023/03/04 09:12:10;;;;;;;27.20;18.58;;;4.00;99.90;;;;;;4886660;29;20731;-76
2023/03/04 09:14:38;;;;;;;19.63;15.50;;;4.10;99.90;;;;;;4875090;29;20621;-78
2023/03/04 09:17:08;;;;;;;21.17;16.08;;;4.20;99.90;;;;;;4890762;29;20225;-77
2023/03/04 09:19:37;;;;;;;23.33;15.00;;;4.20;99.90;;;;;;4889376;29;20249;-75
2023/03/04 09:22:05;;;;;;;20.40;15.10;;;4.10;99.90;;;;;;4885752;29;20285;-77
2023/03/04 09:24:34;;;;;;;21.90;16.60;;;4.10;99.90;;;;;;4882958;29;20209;-75
2023/03/04 09:27:02;;;;;;;21.10;15.75;;;4.10;99.90;;;;;;4887645;29;20222;-74
2023/03/04 09:29:30;;;;;;;24.67;16.27;;;4.20;99.90;;;;;;4888908;29;20211;-75
2023/03/04 09:31:59;;;;;;;23.60;16.05;;;4.20;99.90;;;;;;4885250;29;20202;-74
2023/03/04 09:34:27;;;;;;;22.95;15.40;;;4.10;99.90;;;;;;4882606;29;20198;-74
2023/03/04 09:36:56;;;;;;;19.77;14.30;;;4.10;99.90;;;;;;4887160;29;20214;-73
2023/03/04 09:39:25;;;;;;;23.35;17.58;;;4.20;99.90;;;;;;4882226;29;20209;-78
2023/03/04 09:41:57;;;;;;;22.83;16.40;;;4.20;99.90;;;;;;4885268;29;20695;-78
2023/03/04 09:44:29;;;;;;;20.45;16.40;;;4.20;99.90;;;;;;4891781;29;20690;-75
2023/03/04 09:47:01;;;;;;;20.90;18.40;;;4.20;99.90;;;;;;4888183;29;20259;-76
2023/03/04 09:49:30;;;;;;;27.90;17.67;;;4.30;99.90;;;;;;4891748;29;20203;-75
2023/03/04 09:52:04;;;;;;;20.35;16.38;;;4.30;99.90;;;;;;4868930;29;20247;-76
2023/03/04 09:55:02;;;;;;;20.08;16.85;;;4.30;99.90;;;;;;4890372;29;20209;-76
2023/03/04 09:57:46;;;;;;;24.42;17.40;;;4.20;99.90;;;;;;4884463;29;20313;-74
2023/03/04 10:00:18;;;;;;;20.55;17.02;;;4.30;99.90;;;;;;4873635;29;20723;-75
2023/03/04 10:03:12;;;;;;;25.33;18.67;;;4.40;99.90;;;;;;4890822;29;20741;-77
2023/03/04 10:05:46;;;;;;;26.90;17.83;;;4.30;99.90;;;;;;4881256;29;20692;-74
2023/03/04 10:08:33;;;;;;;23.10;18.73;;;4.40;99.90;;;;;;4893428;29;20231;-75
2023/03/04 10:11:03;;;;;;;27.95;22.33;;;4.50;99.90;;;;;;4893439;29;20450;-75
2023/03/04 10:13:38;;;;;;;28.88;19.77;;;4.50;99.90;;;;;;4897664;29;20744;-75
2023/03/04 10:16:12;;;;;;;29.42;20.25;;;4.60;99.90;;;;;;4894564;29;20771;-76
2023/03/04 10:18:47;;;;;;;28.70;19.75;;;4.60;99.90;;;;;;4895524;29;20282;-75
2023/03/04 10:21:23;;;;;;;29.45;19.80;;;4.70;99.90;;;;;;4888514;29;20385;-78
2023/03/04 10:23:53;;;;;;;25.77;18.67;;;4.80;99.90;;;;;;4894447;29;20206;-74
2023/03/04 10:26:22;;;;;;;32.25;19.90;;;4.80;99.90;;;;;;4896008;29;20467;-76
2023/03/04 10:28:50;;;;;;;22.45;18.25;;;4.80;99.90;;;;;;4896744;29;20281;-76
2023/03/04 10:31:27;;;;;;;23.35;19.00;;;4.90;99.90;;;;;;4896012;29;20764;-74
2023/03/04 10:33:55;;;;;;;24.52;19.00;;;4.90;99.90;;;;;;4878229;29;20213;-74
2023/03/04 10:36:40;;;;;;;24.75;18.65;;;5.00;99.90;;;;;;4894813;29;20818;-73
2023/03/04 10:39:13;;;;;;;28.63;23.00;;;5.10;99.90;;;;;;4893048;29;20511;-79
2023/03/04 10:41:44;;;;;;;26.47;21.03;;;5.00;99.90;;;;;;4895371;29;20233;-77
2023/03/04 10:44:16;;;;;;;26.20;18.67;;;5.20;99.90;;;;;;4884135;29;21560;-78
2023/03/04 10:46:46;;;;;;;27.23;21.48;;;5.30;99.90;;;;;;4888003;29;20992;-76
2023/03/04 10:49:17;;;;;;;32.60;22.85;;;5.50;99.90;;;;;;4891963;29;21231;-77
2023/03/04 10:51:46;;;;;;;32.30;21.67;;;5.60;99.90;;;;;;4892143;29;20203;-75
2023/03/04 10:54:25;;;;;;;26.40;20.77;;;5.80;99.90;;;;;;4890778;29;20463;-77
2023/03/04 10:56:56;;;;;;;29.90;21.73;;;6.50;99.90;;;;;;4875520;29;20481;-76
2023/03/04 10:59:42;;;;;;;27.80;20.70;;;6.50;99.90;;;;;;4867410;29;20463;-77
2023/03/04 11:02:32;;;;;;;27.10;21.77;;;6.30;99.90;;;;;;4892197;29;20463;-76
2023/03/04 11:05:16;;;;;;;27.77;20.17;;;6.20;99.90;;;;;;4886876;29;20474;-76
2023/03/04 11:07:46;;;;;;;26.47;19.70;;;6.10;99.90;;;;;;4888342;29;20478;-76
2023/03/04 11:10:29;;;;;;;31.27;22.67;;;5.90;99.90;;;;;;4877530;29;20452;-76
2023/03/04 11:13:02;;;;;;;34.47;23.77;;;5.90;99.90;;;;;;4892135;29;20463;-75
2023/03/04 11:15:48;;;;;;;35.00;24.30;;;6.00;99.90;;;;;;4893204;29;20814;-75
2023/03/04 11:18:17;;;;;;;31.07;22.70;;;6.00;99.90;;;;;;4881876;29;20540;-74
2023/03/04 11:20:48;;;;;;;36.20;24.30;;;6.00;99.90;;;;;;4892338;29;20479;-77
2023/03/04 11:23:18;;;;;;;37.40;24.53;;;5.90;99.90;;;;;;4888190;29;20470;-76
2023/03/04 11:25:52;;;;;;;27.47;21.10;;;5.90;99.90;;;;;;4890997;29;20466;-77
2023/03/04 11:28:24;;;;;;;30.03;21.77;;;5.90;99.90;;;;;;4891566;29;20492;-75
2023/03/04 11:30:55;;;;;;;27.93;21.67;;;5.90;99.90;;;;;;4890093;29;20461;-75
2023/03/04 11:33:28;;;;;;;30.30;21.70;;;6.00;99.90;;;;;;4891332;29;20471;-76
2023/03/04 11:36:06;;;;;;;25.60;22.03;;;5.90;99.90;;;;;;4894842;29;20858;-75
2023/03/04 11:38:39;;;;;;;31.40;22.60;;;6.10;99.90;;;;;;4893727;29;20497;-74
2023/03/04 11:41:15;;;;;;;28.77;21.80;;;6.30;99.90;;;;;;4893740;29;20459;-76
2023/03/04 11:43:45;;;;;;;31.97;23.27;;;6.50;99.90;;;;;;4868094;29;20490;-74
2023/03/04 11:46:46;;;;;;;35.13;24.87;;;6.30;99.90;;;;;;4890428;29;21825;-74
2023/03/04 11:49:44;;;;;;;37.10;25.00;;;6.30;99.90;;;;;;4892462;29;20460;-77
2023/03/04 11:52:26;;;;;;;29.23;21.52;;;6.20;99.90;;;;;;4878293;29;20538;-78
2023/03/04 11:55:06;;;;;;;30.10;23.70;;;6.10;99.90;;;;;;4887944;29;20681;-78
2023/03/04 11:57:40;;;;;;;34.23;20.90;;;6.20;99.90;;;;;;4887795;29;20498;-77
2023/03/04 12:00:26;;;;;;;36.73;25.57;;;6.20;99.90;;;;;;4884990;29;20791;-75
2023/03/04 12:03:15;;;;;;;41.20;24.27;;;6.20;99.90;;;;;;4888647;29;20474;-76
2023/03/04 12:05:54;;;;;;;27.97;20.97;;;6.20;99.90;;;;;;4891910;29;20501;-76
2023/03/04 12:08:33;;;;;;;28.10;22.00;;;6.10;99.90;;;;;;4887526;29;20484;-76
2023/03/04 12:11:09;;;;;;;30.00;21.77;;;6.20;99.90;;;;;;4887034;29;20496;-76
2023/03/04 12:14:00;;;;;;;29.60;22.80;;;6.20;99.90;;;;;;4876320;29;20515;-78
2023/03/04 12:17:01;;;;;;;29.20;22.10;;;6.20;99.90;;;;;;4889473;29;20972;-75
2023/03/04 12:19:42;;;;;;;29.43;21.60;;;6.30;99.90;;;;;;4881006;29;20464;-77
2023/03/04 12:22:27;;;;;;;32.00;22.30;;;6.30;99.90;;;;;;4890560;29;20469;-75
2023/03/04 12:25:12;;;;;;;34.00;24.05;;;6.40;99.90;;;;;;4879831;29;20463;-78
2023/03/04 12:27:53;;;;;;;31.70;23.27;;;6.40;99.90;;;;;;4888339;29;20274;-81
2023/03/04 12:30:41;;;;;;;35.43;24.67;;;6.50;99.90;;;;;;4873453;29;21017;-80
2023/03/04 12:33:20;;;;;;;27.67;21.27;;;6.60;99.90;;;;;;4888771;29;20964;-77
2023/03/04 12:35:57;;;;;;;32.47;22.37;;;6.70;99.90;;;;;;4891684;29;20465;-77
2023/03/04 12:38:38;;;;;;;30.53;23.40;;;6.90;99.90;;;;;;4891324;29;20510;-77
2023/03/04 12:41:22;;;;;;;29.00;21.00;;;6.80;99.90;;;;;;4888128;29;20451;-76
2023/03/04 12:43:56;;;;;;;32.77;23.10;;;6.80;99.90;;;;;;4890614;29;20454;-76
2023/03/04 12:46:37;;;;;;;29.70;22.13;;;6.70;99.90;;;;;;4892103;29;20575;-77
2023/03/04 12:49:20;;;;;;;31.03;23.53;;;6.70;99.90;;;;;;4889475;29;20463;-77
2023/03/04 12:51:57;;;;;;;32.60;23.40;;;6.80;99.90;;;;;;4893960;29;20442;-77
2023/03/04 12:54:32;;;;;;;25.40;20.90;;;6.80;99.90;;;;;;4892117;29;20448;-78